sensor_id;sensor_type;location;lat;lon;timestamp;pressure;altitude;pressure_sealevel;temperature;humidity
63691;BME280;49837;57.280;27.070;2023-06-14T00:00:40;100717.2;;;7.78;87.44
63691;BME280;49837;57.280;27.070;2023-06-14T00:01:41;100717.77;;;7.73;87.44
63691;BME280;49837;57.280;27.070;2023-06-14T00:02:41;100717.5;;;7.63;87.05
63691;BME280;49837;57.280;27.070;2023-06-14T00:03:42;100714.73;;;7.56;87.17
63691;BME280;49837;57.280;27.070;2023-06-14T00:04:42;100716.35;;;7.54;87.77
63691;BME280;49837;57.280;27.070;2023-06-14T00:05:43;100715.87;;;7.51;87.25
63691;BME280;49837;57.280;27.070;2023-06-14T00:06:44;100714.81;;;7.48;87.71
63691;BME280;49837;57.280;27.070;2023-06-14T00:07:43;100715.82;;;7.48;87.97
63691;BME280;49837;57.280;27.070;2023-06-14T00:08:44;100719.56;;;7.44;87.69
63691;BME280;49837;57.280;27.070;2023-06-14T00:09:44;100718.38;;;7.4;87.66
63691;BME280;49837;57.280;27.070;2023-06-14T00:10:44;100717.38;;;7.39;88.04
63691;BME280;49837;57.280;27.070;2023-06-14T00:11:45;100720.11;;;7.4;88.2
63691;BME280;49837;57.280;27.070;2023-06-14T00:12:45;100719.61;;;7.4;88.0
63691;BME280;49837;57.280;27.070;2023-06-14T00:13:46;100717.36;;;7.4;88.03
63691;BME280;49837;57.280;27.070;2023-06-14T00:14:46;100716.55;;;7.36;87.75
63691;BME280;49837;57.280;27.070;2023-06-14T00:15:47;100719.91;;;7.34;87.89
63691;BME280;49837;57.280;27.070;2023-06-14T00:16:47;100718.22;;;7.36;87.58
63691;BME280;49837;57.280;27.070;2023-06-14T00:17:47;100717.66;;;7.33;87.5
63691;BME280;49837;57.280;27.070;2023-06-14T00:18:48;100720.91;;;7.33;87.61
63691;BME280;49837;57.280;27.070;2023-06-14T00:19:48;100720.66;;;7.31;87.59
63691;BME280;49837;57.280;27.070;2023-06-14T00:20:49;100715.81;;;7.26;87.49
63691;BME280;49837;57.280;27.070;2023-06-14T00:21:49;100720.48;;;7.22;87.76
63691;BME280;49837;57.280;27.070;2023-06-14T00:22:49;100719.39;;;7.22;88.01
63691;BME280;49837;57.280;27.070;2023-06-14T00:23:50;100718.73;;;7.22;88.16
63691;BME280;49837;57.280;27.070;2023-06-14T00:24:51;100721.66;;;7.22;88.36
63691;BME280;49837;57.280;27.070;2023-06-14T00:25:51;100722.08;;;7.2;88.35
63691;BME280;49837;57.280;27.070;2023-06-14T00:26:51;100719.03;;;7.18;88.51
63691;BME280;49837;57.280;27.070;2023-06-14T00:27:52;100713.88;;;7.16;88.53
63691;BME280;49837;57.280;27.070;2023-06-14T00:28:52;100719.22;;;7.16;88.65
63691;BME280;49837;57.280;27.070;2023-06-14T00:29:52;100717.78;;;7.18;88.6
63691;BME280;49837;57.280;27.070;2023-06-14T00:30:52;100715.48;;;7.15;88.65
63691;BME280;49837;57.280;27.070;2023-06-14T00:31:53;100713.5;;;7.13;88.62
63691;BME280;49837;57.280;27.070;2023-06-14T00:32:53;100718.22;;;7.12;88.78
63691;BME280;49837;57.280;27.070;2023-06-14T00:33:53;100715.84;;;7.1;88.64
63691;BME280;49837;57.280;27.070;2023-06-14T00:34:54;100718.94;;;7.07;88.26
63691;BME280;49837;57.280;27.070;2023-06-14T00:35:54;100718.36;;;7.03;88.31
63691;BME280;49837;57.280;27.070;2023-06-14T00:36:55;100720.38;;;7.03;88.45
63691;BME280;49837;57.280;27.070;2023-06-14T00:37:55;100719.12;;;7.02;88.42
63691;BME280;49837;57.280;27.070;2023-06-14T00:38:55;100721.39;;;7.0;88.5
63691;BME280;49837;57.280;27.070;2023-06-14T00:39:56;100720.23;;;6.99;89.0
63691;BME280;49837;57.280;27.070;2023-06-14T00:40:56;100720.81;;;6.97;88.62
63691;BME280;49837;57.280;27.070;2023-06-14T00:41:56;100722.5;;;6.94;88.38
63691;BME280;49837;57.280;27.070;2023-06-14T00:42:57;100722.5;;;6.93;88.08
63691;BME280;49837;57.280;27.070;2023-06-14T00:43:57;100721.52;;;6.91;88.7
63691;BME280;49837;57.280;27.070;2023-06-14T00:44:58;100723.66;;;6.93;89.07
63691;BME280;49837;57.280;27.070;2023-06-14T00:45:58;100723.65;;;6.94;89.53
63691;BME280;49837;57.280;27.070;2023-06-14T00:46:58;100723.83;;;6.92;89.41
63691;BME280;49837;57.280;27.070;2023-06-14T00:48:00;100723.87;;;6.87;89.36
63691;BME280;49837;57.280;27.070;2023-06-14T00:49:00;100723.38;;;6.85;89.52
63691;BME280;49837;57.280;27.070;2023-06-14T00:50:00;100722.24;;;6.83;89.62
63691;BME280;49837;57.280;27.070;2023-06-14T00:51:00;100721.42;;;6.8;89.13
63691;BME280;49837;57.280;27.070;2023-06-14T00:52:00;100721.33;;;6.83;88.58
63691;BME280;49837;57.280;27.070;2023-06-14T00:53:01;100721.77;;;6.79;87.94
63691;BME280;49837;57.280;27.070;2023-06-14T00:54:01;100719.89;;;6.7;87.71
63691;BME280;49837;57.280;27.070;2023-06-14T00:55:02;100723.66;;;6.64;87.8
63691;BME280;49837;57.280;27.070;2023-06-14T00:56:02;100722.52;;;6.6;88.0
63691;BME280;49837;57.280;27.070;2023-06-14T00:57:03;100723.02;;;6.59;88.27
63691;BME280;49837;57.280;27.070;2023-06-14T00:58:03;100718.95;;;6.57;88.62
63691;BME280;49837;57.280;27.070;2023-06-14T00:59:03;100725.84;;;6.57;89.3
63691;BME280;49837;57.280;27.070;2023-06-14T01:00:04;100722.27;;;6.58;89.88
63691;BME280;49837;57.280;27.070;2023-06-14T01:01:04;100718.12;;;6.61;89.92
63691;BME280;49837;57.280;27.070;2023-06-14T01:02:04;100718.8;;;6.56;89.86
63691;BME280;49837;57.280;27.070;2023-06-14T01:03:04;100720.3;;;6.54;89.99
63691;BME280;49837;57.280;27.070;2023-06-14T01:04:05;100720.31;;;6.51;89.91
63691;BME280;49837;57.280;27.070;2023-06-14T01:05:06;100720.16;;;6.49;89.78
63691;BME280;49837;57.280;27.070;2023-06-14T01:07:15;100719.05;;;6.53;89.83
63691;BME280;49837;57.280;27.070;2023-06-14T01:08:28;100717.25;;;6.52;89.76
63691;BME280;49837;57.280;27.070;2023-06-14T01:13:31;100709.77;;;6.58;90.46
63691;BME280;49837;57.280;27.070;2023-06-14T01:14:30;100712.42;;;6.58;90.75
63691;BME280;49837;57.280;27.070;2023-06-14T01:15:31;100713.24;;;6.59;90.25
63691;BME280;49837;57.280;27.070;2023-06-14T01:16:30;100713.64;;;6.58;89.98
63691;BME280;49837;57.280;27.070;2023-06-14T01:17:30;100716.75;;;6.54;89.87
63691;BME280;49837;57.280;27.070;2023-06-14T01:18:31;100717.48;;;6.53;89.75
63691;BME280;49837;57.280;27.070;2023-06-14T01:19:32;100712.69;;;6.5;89.54
63691;BME280;49837;57.280;27.070;2023-06-14T01:20:33;100712.55;;;6.46;89.73
63691;BME280;49837;57.280;27.070;2023-06-14T01:21:32;100713.02;;;6.51;90.04
63691;BME280;49837;57.280;27.070;2023-06-14T01:22:32;100713.98;;;6.54;90.08
63691;BME280;49837;57.280;27.070;2023-06-14T01:23:33;100713.92;;;6.55;90.05
63691;BME280;49837;57.280;27.070;2023-06-14T01:24:33;100717.31;;;6.54;89.8
63691;BME280;49837;57.280;27.070;2023-06-14T01:25:33;100716.75;;;6.53;89.89
63691;BME280;49837;57.280;27.070;2023-06-14T01:26:34;100716.73;;;6.54;89.84
63691;BME280;49837;57.280;27.070;2023-06-14T01:27:34;100718.73;;;6.55;89.86
63691;BME280;49837;57.280;27.070;2023-06-14T01:28:35;100717.57;;;6.51;89.69
63691;BME280;49837;57.280;27.070;2023-06-14T01:29:35;100718.82;;;6.51;89.27
63691;BME280;49837;57.280;27.070;2023-06-14T01:30:36;100717.84;;;6.48;88.92
63691;BME280;49837;57.280;27.070;2023-06-14T01:31:36;100713.96;;;6.45;89.1
63691;BME280;49837;57.280;27.070;2023-06-14T01:32:36;100716.47;;;6.39;88.89
63691;BME280;49837;57.280;27.070;2023-06-14T01:33:37;100720.22;;;6.34;88.55
63691;BME280;49837;57.280;27.070;2023-06-14T01:34:37;100723.69;;;6.31;88.33
63691;BME280;49837;57.280;27.070;2023-06-14T01:35:37;100722.38;;;6.31;88.24
63691;BME280;49837;57.280;27.070;2023-06-14T01:36:40;100724.52;;;6.34;88.1
63691;BME280;49837;57.280;27.070;2023-06-14T01:37:40;100720.8;;;6.34;88.04
63691;BME280;49837;57.280;27.070;2023-06-14T01:38:39;100725.31;;;6.41;88.55
63691;BME280;49837;57.280;27.070;2023-06-14T01:39:39;100719.73;;;6.47;88.7
63691;BME280;49837;57.280;27.070;2023-06-14T01:40:40;100721.66;;;6.46;88.41
63691;BME280;49837;57.280;27.070;2023-06-14T01:41:40;100724.05;;;6.44;88.67
63691;BME280;49837;57.280;27.070;2023-06-14T01:42:40;100725.5;;;6.42;88.86
63691;BME280;49837;57.280;27.070;2023-06-14T01:43:41;100725.91;;;6.42;88.92
63691;BME280;49837;57.280;27.070;2023-06-14T01:44:42;100719.69;;;6.44;88.88
63691;BME280;49837;57.280;27.070;2023-06-14T01:45:42;100722.31;;;6.46;88.83
63691;BME280;49837;57.280;27.070;2023-06-14T01:46:42;100724.5;;;6.41;88.75
63691;BME280;49837;57.280;27.070;2023-06-14T01:47:42;100723.43;;;6.37;88.96
63691;BME280;49837;57.280;27.070;2023-06-14T01:48:42;100725.34;;;6.37;89.07
63691;BME280;49837;57.280;27.070;2023-06-14T01:49:42;100724.1;;;6.34;89.05
63691;BME280;49837;57.280;27.070;2023-06-14T01:50:43;100725.77;;;6.35;88.84
63691;BME280;49837;57.280;27.070;2023-06-14T01:51:43;100726.52;;;6.35;88.23
63691;BME280;49837;57.280;27.070;2023-06-14T01:52:44;100726.92;;;6.31;87.96
63691;BME280;49837;57.280;27.070;2023-06-14T01:53:44;100728.98;;;6.35;87.69
63691;BME280;49837;57.280;27.070;2023-06-14T01:54:44;100727.76;;;6.36;88.15
63691;BME280;49837;57.280;27.070;2023-06-14T01:55:45;100726.34;;;6.36;88.02
63691;BME280;49837;57.280;27.070;2023-06-14T01:56:45;100727.17;;;6.35;87.96
63691;BME280;49837;57.280;27.070;2023-06-14T01:57:45;100725.53;;;6.31;87.65
63691;BME280;49837;57.280;27.070;2023-06-14T01:58:46;100722.95;;;6.3;87.83
63691;BME280;49837;57.280;27.070;2023-06-14T01:59:46;100723.02;;;6.32;87.77
63691;BME280;49837;57.280;27.070;2023-06-14T02:00:47;100724.69;;;6.29;87.38
63691;BME280;49837;57.280;27.070;2023-06-14T02:01:47;100722.96;;;6.34;87.63
63691;BME280;49837;57.280;27.070;2023-06-14T02:02:47;100723.73;;;6.42;88.08
63691;BME280;49837;57.280;27.070;2023-06-14T02:03:48;100717.09;;;6.44;88.52
63691;BME280;49837;57.280;27.070;2023-06-14T02:04:48;100720.67;;;6.46;88.48
63691;BME280;49837;57.280;27.070;2023-06-14T02:05:48;100716.95;;;6.45;88.58
63691;BME280;49837;57.280;27.070;2023-06-14T02:06:49;100717.27;;;6.43;88.64
63691;BME280;49837;57.280;27.070;2023-06-14T02:07:50;100718.09;;;6.44;88.65
63691;BME280;49837;57.280;27.070;2023-06-14T02:08:50;100723.0;;;6.44;88.53
63691;BME280;49837;57.280;27.070;2023-06-14T02:09:50;100720.16;;;6.46;88.35
63691;BME280;49837;57.280;27.070;2023-06-14T02:10:51;100721.33;;;6.45;88.37
63691;BME280;49837;57.280;27.070;2023-06-14T02:11:51;100726.81;;;6.45;88.55
63691;BME280;49837;57.280;27.070;2023-06-14T02:12:51;100721.58;;;6.48;88.69
63691;BME280;49837;57.280;27.070;2023-06-14T02:13:51;100720.91;;;6.5;88.46
63691;BME280;49837;57.280;27.070;2023-06-14T02:14:52;100721.71;;;6.51;88.17
63691;BME280;49837;57.280;27.070;2023-06-14T02:15:52;100721.23;;;6.52;87.95
63691;BME280;49837;57.280;27.070;2023-06-14T02:16:53;100724.7;;;6.54;87.65
63691;BME280;49837;57.280;27.070;2023-06-14T02:17:53;100723.61;;;6.52;87.47
63691;BME280;49837;57.280;27.070;2023-06-14T02:18:53;100718.46;;;6.55;87.59
63691;BME280;49837;57.280;27.070;2023-06-14T02:19:54;100720.88;;;6.58;87.68
63691;BME280;49837;57.280;27.070;2023-06-14T02:20:55;100722.74;;;6.62;87.64
63691;BME280;49837;57.280;27.070;2023-06-14T02:21:54;100720.77;;;6.6;87.73
63691;BME280;49837;57.280;27.070;2023-06-14T02:22:55;100719.03;;;6.6;88.11
63691;BME280;49837;57.280;27.070;2023-06-14T02:23:55;100720.36;;;6.62;88.09
63691;BME280;49837;57.280;27.070;2023-06-14T02:24:55;100720.26;;;6.65;88.01
63691;BME280;49837;57.280;27.070;2023-06-14T02:25:59;100717.82;;;6.71;87.81
63691;BME280;49837;57.280;27.070;2023-06-14T02:26:59;100721.69;;;6.75;87.46
63691;BME280;49837;57.280;27.070;2023-06-14T02:27:59;100720.83;;;6.8;87.31
63691;BME280;49837;57.280;27.070;2023-06-14T02:29:00;100720.81;;;6.85;87.28
63691;BME280;49837;57.280;27.070;2023-06-14T02:30:00;100718.06;;;6.88;87.28
63691;BME280;49837;57.280;27.070;2023-06-14T02:31:00;100716.45;;;6.91;87.39
63691;BME280;49837;57.280;27.070;2023-06-14T02:32:01;100716.87;;;6.93;87.31
63691;BME280;49837;57.280;27.070;2023-06-14T02:33:01;100716.12;;;6.93;87.48
63691;BME280;49837;57.280;27.070;2023-06-14T02:34:02;100712.62;;;6.94;87.42
63691;BME280;49837;57.280;27.070;2023-06-14T02:35:02;100714.55;;;6.94;87.59
63691;BME280;49837;57.280;27.070;2023-06-14T02:36:03;100718.51;;;6.96;87.54
63691;BME280;49837;57.280;27.070;2023-06-14T02:37:03;100717.05;;;7.0;87.3
63691;BME280;49837;57.280;27.070;2023-06-14T02:38:03;100718.35;;;7.05;87.06
63691;BME280;49837;57.280;27.070;2023-06-14T02:39:03;100717.24;;;7.12;86.9
63691;BME280;49837;57.280;27.070;2023-06-14T02:40:05;100720.09;;;7.18;86.87
63691;BME280;49837;57.280;27.070;2023-06-14T02:41:04;100720.98;;;7.25;86.68
63691;BME280;49837;57.280;27.070;2023-06-14T02:42:05;100718.45;;;7.28;86.41
63691;BME280;49837;57.280;27.070;2023-06-14T02:43:05;100721.98;;;7.35;86.31
63691;BME280;49837;57.280;27.070;2023-06-14T02:44:06;100720.84;;;7.4;86.24
63691;BME280;49837;57.280;27.070;2023-06-14T02:45:07;100720.75;;;7.41;86.3
63691;BME280;49837;57.280;27.070;2023-06-14T02:46:06;100720.98;;;7.43;86.3
63691;BME280;49837;57.280;27.070;2023-06-14T02:47:07;100721.47;;;7.46;86.43
63691;BME280;49837;57.280;27.070;2023-06-14T02:48:07;100725.3;;;7.46;85.49
63691;BME280;49837;57.280;27.070;2023-06-14T02:49:07;100725.45;;;7.48;85.89
63691;BME280;49837;57.280;27.070;2023-06-14T02:50:08;100724.78;;;7.49;86.47
63691;BME280;49837;57.280;27.070;2023-06-14T02:51:08;100723.29;;;7.48;86.19
63691;BME280;49837;57.280;27.070;2023-06-14T02:52:08;100725.62;;;7.54;85.95
63691;BME280;49837;57.280;27.070;2023-06-14T02:53:09;100725.36;;;7.55;85.96
63691;BME280;49837;57.280;27.070;2023-06-14T02:54:09;100725.0;;;7.61;85.92
63691;BME280;49837;57.280;27.070;2023-06-14T02:55:10;100727.83;;;7.67;85.8
63691;BME280;49837;57.280;27.070;2023-06-14T02:56:10;100728.13;;;7.71;85.7
63691;BME280;49837;57.280;27.070;2023-06-14T02:57:10;100724.45;;;7.77;85.66
63691;BME280;49837;57.280;27.070;2023-06-14T02:58:11;100723.57;;;7.82;85.4
63691;BME280;49837;57.280;27.070;2023-06-14T02:59:11;100721.95;;;7.85;85.1
63691;BME280;49837;57.280;27.070;2023-06-14T03:00:12;100724.14;;;7.89;84.87
63691;BME280;49837;57.280;27.070;2023-06-14T03:01:12;100721.02;;;7.95;84.3
63691;BME280;49837;57.280;27.070;2023-06-14T03:02:12;100722.02;;;8.03;84.24
63691;BME280;49837;57.280;27.070;2023-06-14T03:03:13;100721.67;;;8.12;84.35
63691;BME280;49837;57.280;27.070;2023-06-14T03:04:13;100721.09;;;8.21;84.29
63691;BME280;49837;57.280;27.070;2023-06-14T03:05:14;100725.14;;;8.28;83.76
63691;BME280;49837;57.280;27.070;2023-06-14T03:06:14;100725.51;;;8.27;83.74
63691;BME280;49837;57.280;27.070;2023-06-14T03:07:14;100724.28;;;8.31;84.19
63691;BME280;49837;57.280;27.070;2023-06-14T03:08:16;100730.83;;;8.33;84.68
63691;BME280;49837;57.280;27.070;2023-06-14T03:09:15;100729.12;;;8.37;84.75
63691;BME280;49837;57.280;27.070;2023-06-14T03:10:16;100728.3;;;8.3;83.65
63691;BME280;49837;57.280;27.070;2023-06-14T03:11:16;100728.29;;;8.31;83.68
63691;BME280;49837;57.280;27.070;2023-06-14T03:12:16;100731.39;;;8.34;83.42
63691;BME280;49837;57.280;27.070;2023-06-14T03:13:16;100731.2;;;8.44;83.19
63691;BME280;49837;57.280;27.070;2023-06-14T03:14:17;100731.02;;;8.49;82.87
63691;BME280;49837;57.280;27.070;2023-06-14T03:15:17;100730.48;;;8.57;82.47
63691;BME280;49837;57.280;27.070;2023-06-14T03:16:18;100732.62;;;8.72;82.39
63691;BME280;49837;57.280;27.070;2023-06-14T03:17:18;100733.1;;;8.86;81.91
63691;BME280;49837;57.280;27.070;2023-06-14T03:18:18;100733.83;;;9.0;81.39
63691;BME280;49837;57.280;27.070;2023-06-14T03:19:19;100735.81;;;9.06;81.03
63691;BME280;49837;57.280;27.070;2023-06-14T03:20:19;100731.36;;;9.14;80.89
63691;BME280;49837;57.280;27.070;2023-06-14T03:21:20;100737.06;;;9.17;81.04
63691;BME280;49837;57.280;27.070;2023-06-14T03:22:20;100735.23;;;9.24;80.99
63691;BME280;49837;57.280;27.070;2023-06-14T03:23:20;100737.15;;;9.29;80.88
63691;BME280;49837;57.280;27.070;2023-06-14T03:24:21;100732.44;;;9.32;80.84
63691;BME280;49837;57.280;27.070;2023-06-14T03:25:21;100735.72;;;9.34;81.06
63691;BME280;49837;57.280;27.070;2023-06-14T03:26:22;100735.87;;;9.35;81.11
63691;BME280;49837;57.280;27.070;2023-06-14T03:27:22;100734.52;;;9.36;81.39
63691;BME280;49837;57.280;27.070;2023-06-14T03:28:22;100738.46;;;9.35;81.77
63691;BME280;49837;57.280;27.070;2023-06-14T03:29:23;100740.06;;;9.33;81.92
63691;BME280;49837;57.280;27.070;2023-06-14T03:30:23;100738.05;;;9.4;82.18
63691;BME280;49837;57.280;27.070;2023-06-14T03:31:24;100736.2;;;9.47;82.14
63691;BME280;49837;57.280;27.070;2023-06-14T03:32:24;100738.33;;;9.65;81.75
63691;BME280;49837;57.280;27.070;2023-06-14T03:33:24;100739.58;;;9.79;81.29
63691;BME280;49837;57.280;27.070;2023-06-14T03:34:25;100737.89;;;9.99;80.63
63691;BME280;49837;57.280;27.070;2023-06-14T03:35:25;100738.42;;;10.15;80.0
63691;BME280;49837;57.280;27.070;2023-06-14T03:36:26;100740.56;;;10.2;79.73
63691;BME280;49837;57.280;27.070;2023-06-14T03:37:26;100734.06;;;10.26;79.55
63691;BME280;49837;57.280;27.070;2023-06-14T03:38:26;100737.2;;;10.36;79.4
63691;BME280;49837;57.280;27.070;2023-06-14T03:39:27;100743.74;;;10.51;78.94
63691;BME280;49837;57.280;27.070;2023-06-14T03:40:27;100738.48;;;10.52;78.59
63691;BME280;49837;57.280;27.070;2023-06-14T03:41:28;100740.09;;;10.55;78.59
63691;BME280;49837;57.280;27.070;2023-06-14T03:42:28;100741.09;;;10.58;78.38
63691;BME280;49837;57.280;27.070;2023-06-14T03:43:28;100739.05;;;10.65;78.16
63691;BME280;49837;57.280;27.070;2023-06-14T03:44:29;100739.3;;;10.81;77.97
63691;BME280;49837;57.280;27.070;2023-06-14T03:45:29;100732.56;;;11.1;77.31
63691;BME280;49837;57.280;27.070;2023-06-14T03:46:30;100733.84;;;11.54;76.11
63691;BME280;49837;57.280;27.070;2023-06-14T03:47:30;100735.02;;;11.94;74.19
63691;BME280;49837;57.280;27.070;2023-06-14T03:48:31;100736.45;;;12.25;72.75
63691;BME280;49837;57.280;27.070;2023-06-14T03:49:31;100736.53;;;12.61;72.2
63691;BME280;49837;57.280;27.070;2023-06-14T03:50:31;100742.99;;;12.91;70.72
63691;BME280;49837;57.280;27.070;2023-06-14T03:51:32;100740.06;;;12.97;69.65
63691;BME280;49837;57.280;27.070;2023-06-14T03:52:32;100741.96;;;12.93;69.97
63691;BME280;49837;57.280;27.070;2023-06-14T03:53:33;100742.45;;;13.2;70.43
63691;BME280;49837;57.280;27.070;2023-06-14T03:54:33;100739.3;;;13.37;69.34
63691;BME280;49837;57.280;27.070;2023-06-14T03:55:33;100740.39;;;13.94;68.13
63691;BME280;49837;57.280;27.070;2023-06-14T03:56:34;100740.2;;;13.92;67.8
63691;BME280;49837;57.280;27.070;2023-06-14T03:57:34;100739.89;;;13.97;66.42
63691;BME280;49837;57.280;27.070;2023-06-14T03:58:35;100742.08;;;13.94;66.4
63691;BME280;49837;57.280;27.070;2023-06-14T03:59:35;100738.31;;;14.01;66.71
63691;BME280;49837;57.280;27.070;2023-06-14T04:00:36;100738.05;;;14.39;66.72
63691;BME280;49837;57.280;27.070;2023-06-14T04:01:36;100735.23;;;14.58;66.01
63691;BME280;49837;57.280;27.070;2023-06-14T04:02:37;100737.86;;;14.56;66.03
63691;BME280;49837;57.280;27.070;2023-06-14T04:03:37;100738.84;;;14.3;65.54
63691;BME280;49837;57.280;27.070;2023-06-14T04:04:38;100739.25;;;14.19;65.48
63691;BME280;49837;57.280;27.070;2023-06-14T04:05:38;100745.56;;;14.14;66.46
63691;BME280;49837;57.280;27.070;2023-06-14T04:06:38;100742.88;;;13.9;67.97
63691;BME280;49837;57.280;27.070;2023-06-14T04:07:39;100740.68;;;13.81;68.67
63691;BME280;49837;57.280;27.070;2023-06-14T04:08:40;100745.34;;;13.69;68.58
63691;BME280;49837;57.280;27.070;2023-06-14T04:09:40;100740.75;;;13.73;69.07
63691;BME280;49837;57.280;27.070;2023-06-14T04:10:40;100743.57;;;13.72;69.31
63691;BME280;49837;57.280;27.070;2023-06-14T04:11:41;100741.32;;;13.69;69.3
63691;BME280;49837;57.280;27.070;2023-06-14T04:12:42;100741.36;;;13.7;69.86
63691;BME280;49837;57.280;27.070;2023-06-14T04:13:42;100742.92;;;13.76;69.37
63691;BME280;49837;57.280;27.070;2023-06-14T04:14:43;100743.03;;;13.73;69.42
63691;BME280;49837;57.280;27.070;2023-06-14T04:15:43;100747.12;;;13.73;69.38
63691;BME280;49837;57.280;27.070;2023-06-14T04:16:43;100745.58;;;13.74;70.35
63691;BME280;49837;57.280;27.070;2023-06-14T04:17:44;100746.94;;;13.91;70.2
63691;BME280;49837;57.280;27.070;2023-06-14T04:18:44;100743.52;;;13.98;69.14
63691;BME280;49837;57.280;27.070;2023-06-14T04:19:44;100745.92;;;13.97;69.2
63691;BME280;49837;57.280;27.070;2023-06-14T04:20:45;100744.91;;;14.06;69.37
63691;BME280;49837;57.280;27.070;2023-06-14T04:21:45;100743.88;;;14.19;69.58
63691;BME280;49837;57.280;27.070;2023-06-14T04:22:46;100743.98;;;14.31;68.83
63691;BME280;49837;57.280;27.070;2023-06-14T04:23:46;100742.53;;;14.45;68.94
63691;BME280;49837;57.280;27.070;2023-06-14T04:24:47;100743.16;;;14.54;67.44
63691;BME280;49837;57.280;27.070;2023-06-14T04:25:47;100747.2;;;14.61;67.93
63691;BME280;49837;57.280;27.070;2023-06-14T04:26:49;100746.78;;;14.74;67.23
63691;BME280;49837;57.280;27.070;2023-06-14T04:27:48;100748.23;;;14.7;66.72
63691;BME280;49837;57.280;27.070;2023-06-14T04:28:48;100748.91;;;14.7;66.72
63691;BME280;49837;57.280;27.070;2023-06-14T04:29:48;100748.95;;;14.74;67.3
63691;BME280;49837;57.280;27.070;2023-06-14T04:30:49;100749.31;;;14.69;66.33
63691;BME280;49837;57.280;27.070;2023-06-14T04:31:49;100753.09;;;14.73;65.81
63691;BME280;49837;57.280;27.070;2023-06-14T04:32:50;100749.66;;;14.82;66.18
63691;BME280;49837;57.280;27.070;2023-06-14T04:33:50;100755.17;;;14.9;66.07
63691;BME280;49837;57.280;27.070;2023-06-14T04:34:52;100753.23;;;14.94;65.65
63691;BME280;49837;57.280;27.070;2023-06-14T04:35:51;100750.88;;;15.01;65.22
63691;BME280;49837;57.280;27.070;2023-06-14T04:36:52;100752.39;;;14.94;64.37
63691;BME280;49837;57.280;27.070;2023-06-14T04:37:52;100748.92;;;14.9;64.27
63691;BME280;49837;57.280;27.070;2023-06-14T04:38:53;100749.97;;;14.96;63.62
63691;BME280;49837;57.280;27.070;2023-06-14T04:39:54;100750.47;;;15.02;63.32
63691;BME280;49837;57.280;27.070;2023-06-14T04:40:53;100751.98;;;15.07;62.23
63691;BME280;49837;57.280;27.070;2023-06-14T04:41:54;100751.3;;;15.15;62.12
63691;BME280;49837;57.280;27.070;2023-06-14T04:42:54;100746.76;;;15.26;61.47
63691;BME280;49837;57.280;27.070;2023-06-14T04:43:55;100745.73;;;15.29;61.67
63691;BME280;49837;57.280;27.070;2023-06-14T04:44:55;100743.54;;;15.4;61.62
63691;BME280;49837;57.280;27.070;2023-06-14T04:45:56;100745.11;;;15.46;60.94
63691;BME280;49837;57.280;27.070;2023-06-14T04:46:57;100744.46;;;15.52;60.97
63691;BME280;49837;57.280;27.070;2023-06-14T04:47:58;100747.06;;;15.62;60.69
63691;BME280;49837;57.280;27.070;2023-06-14T04:48:57;100743.03;;;15.66;60.45
63691;BME280;49837;57.280;27.070;2023-06-14T04:49:57;100744.3;;;15.72;59.93
63691;BME280;49837;57.280;27.070;2023-06-14T04:50:58;100742.62;;;15.82;59.57
63691;BME280;49837;57.280;27.070;2023-06-14T04:51:58;100739.85;;;15.94;59.54
63691;BME280;49837;57.280;27.070;2023-06-14T04:52:59;100743.44;;;16.03;59.0
63691;BME280;49837;57.280;27.070;2023-06-14T04:53:59;100743.59;;;16.11;58.77
63691;BME280;49837;57.280;27.070;2023-06-14T04:55:00;100741.64;;;16.21;59.12
63691;BME280;49837;57.280;27.070;2023-06-14T04:56:00;100744.42;;;16.31;58.55
63691;BME280;49837;57.280;27.070;2023-06-14T04:57:01;100746.62;;;16.4;58.29
63691;BME280;49837;57.280;27.070;2023-06-14T04:58:01;100749.45;;;16.37;57.91
63691;BME280;49837;57.280;27.070;2023-06-14T04:59:02;100751.12;;;16.46;57.09
63691;BME280;49837;57.280;27.070;2023-06-14T05:00:03;100751.95;;;16.56;57.58
63691;BME280;49837;57.280;27.070;2023-06-14T05:01:02;100751.19;;;16.63;57.51
63691;BME280;49837;57.280;27.070;2023-06-14T05:02:04;100749.73;;;16.7;56.79
63691;BME280;49837;57.280;27.070;2023-06-14T05:03:04;100755.0;;;16.79;56.24
63691;BME280;49837;57.280;27.070;2023-06-14T05:04:04;100758.47;;;16.9;56.54
63691;BME280;49837;57.280;27.070;2023-06-14T05:05:06;100756.88;;;16.9;55.88
63691;BME280;49837;57.280;27.070;2023-06-14T05:06:05;100756.52;;;16.87;55.69
63691;BME280;49837;57.280;27.070;2023-06-14T05:07:09;100758.33;;;16.93;55.54
63691;BME280;49837;57.280;27.070;2023-06-14T05:08:07;100758.58;;;17.01;55.96
63691;BME280;49837;57.280;27.070;2023-06-14T05:09:08;100760.89;;;17.15;55.07
63691;BME280;49837;57.280;27.070;2023-06-14T05:10:08;100760.66;;;17.21;54.7
63691;BME280;49837;57.280;27.070;2023-06-14T05:11:08;100763.44;;;17.32;54.71
63691;BME280;49837;57.280;27.070;2023-06-14T05:12:09;100761.14;;;17.32;53.76
63691;BME280;49837;57.280;27.070;2023-06-14T05:13:09;100762.86;;;17.44;54.12
63691;BME280;49837;57.280;27.070;2023-06-14T05:14:11;100758.83;;;17.56;53.6
63691;BME280;49837;57.280;27.070;2023-06-14T05:15:10;100754.52;;;17.59;53.23
63691;BME280;49837;57.280;27.070;2023-06-14T05:16:11;100755.95;;;17.56;52.56
63691;BME280;49837;57.280;27.070;2023-06-14T05:17:11;100754.52;;;17.67;52.57
63691;BME280;49837;57.280;27.070;2023-06-14T05:18:11;100751.8;;;17.77;52.8
63691;BME280;49837;57.280;27.070;2023-06-14T05:19:12;100754.48;;;17.86;51.92
63691;BME280;49837;57.280;27.070;2023-06-14T05:20:12;100756.12;;;17.98;51.99
63691;BME280;49837;57.280;27.070;2023-06-14T05:21:13;100753.34;;;18.06;52.21